Αρχική σελίδα
METAR-TAF:

METAR-TAF

Αεροδρόμια :

Ottawa, Κάνσας, Ηνωμένες Πολιτείες Αμερικής

γεωγραφικό πλάτος: 38-32-20N, γεωγραφικό μήκος: 095-15-10W, υψόμετρο: 295 μ

Παρών καιρός

Η αναφορά έγινε 19 λεπτά πριν, στις 23:35 UTC
Άνεμος 6 kt από Β/BA με ριπές μέχρι 13 kt
Θερμοκρασία 32°C
Υγρασία 34%
Πίεση 1014 hPa
Ορατότητα: 14.5 χλμ
Καθαρός ουρανός

METAR: KOWI 222335Z AUTO 02006G13KT 9SM CLR 32/14 A2993 RMK AO2 PWINO

Χρόνος: 18:54 (23:54 UTC)


TAF: λείπει

Μετεωρολογικές αναφορές και προγνώσεις για περισσότερα από 4000 αεροδρόμια (δελτία METAR και TAF).

Οι διαθέσιμοι σταθμοί απεικονίζονται στο χάρτη με κίτρινες και κόκκινες κουκκίδες.

Μετακινήστε το ποντίκι πάνω από τις κουκκίδες για να δείτε το όνομα του σταθμού.

Στη συνέχεια, κάντε κλικ για να δείτε τις μετεωρολογικές αναφορές και τις προγνώσεις καιρού.

Για να αλλάξετε το χάρτη: κάντε κλικ στα πράσινα κουμπιά με τον μαύρο σταυρό για να ζουμάρετε, στο πράσινο κουμπί με την παύλα για να αφαιρέσετε το ζουμ ή στα πράσινα βέλη για να αντιπαραβάλλετε χάρτες.


METAR-TAF: